Time;durP1;ratioP1;P1;durP2;ratioP2;P2;SDS_P1;SDS_P2;PMS_P1;PMS_P2;Temp;Humidity;BMP_temperature;BMP_pressure;BME280_temperature;BME280_humidity;BME280_pressure;Samples;Min_cycle;Max_cycle;Signal;HPM_P1;HPM_P2
2022/07/13 00:02:17;;;;;;;4.15;2.35;;;26.90;52.20;;;;;;5036474;28;20435;-86
2022/07/13 00:04:42;;;;;;;2.30;1.92;;;27.00;52.30;;;;;;5059425;28;20037;-83
2022/07/13 00:07:08;;;;;;;2.38;2.08;;;26.90;52.20;;;;;;5041151;28;20029;-84
2022/07/13 00:09:34;;;;;;;3.15;2.03;;;26.90;52.30;;;;;;5072476;28;20029;-82
2022/07/13 00:11:59;;;;;;;2.35;2.08;;;26.90;52.40;;;;;;5057528;28;20453;-83
2022/07/13 00:14:25;;;;;;;2.22;1.90;;;26.90;52.40;;;;;;5074108;28;20040;-83
2022/07/13 00:16:51;;;;;;;2.35;2.15;;;26.80;52.70;;;;;;5057796;28;20388;-83
2022/07/13 00:19:16;;;;;;;2.42;1.98;;;26.80;52.40;;;;;;5061436;28;20029;-82
2022/07/13 00:21:42;;;;;;;2.30;2.10;;;26.80;52.50;;;;;;5065249;28;20033;-83
2022/07/13 00:24:08;;;;;;;2.40;2.13;;;26.70;52.50;;;;;;5055231;28;20514;-84
2022/07/13 00:26:34;;;;;;;3.38;2.22;;;26.70;52.60;;;;;;5065955;28;20025;-82
2022/07/13 00:28:59;;;;;;;2.38;1.92;;;26.80;52.70;;;;;;5072700;28;20098;-82
2022/07/13 00:31:25;;;;;;;2.83;2.20;;;26.70;52.60;;;;;;5070404;28;20036;-89
2022/07/13 00:33:51;;;;;;;2.83;2.20;;;26.60;52.60;;;;;;5059077;28;20135;-82
2022/07/13 00:36:17;;;;;;;3.13;2.28;;;26.70;52.70;;;;;;5056371;28;20033;-85
2022/07/13 00:38:42;;;;;;;2.92;2.30;;;26.60;52.70;;;;;;5054176;28;20054;-83
2022/07/13 00:41:08;;;;;;;2.72;2.30;;;26.60;52.80;;;;;;5072939;28;20085;-83
2022/07/13 00:43:34;;;;;;;3.45;2.33;;;26.60;52.90;;;;;;5055719;28;20468;-85
2022/07/13 00:46:00;;;;;;;2.45;2.25;;;26.50;52.90;;;;;;5073424;28;20028;-82
2022/07/13 00:48:26;;;;;;;3.10;2.25;;;26.50;52.90;;;;;;5059722;28;20392;-87
2022/07/13 00:50:53;;;;;;;2.67;2.00;;;26.50;53.00;;;;;;5033225;28;20032;-81
2022/07/13 00:53:19;;;;;;;2.38;2.10;;;26.50;53.00;;;;;;5056333;28;20441;-84
2022/07/13 00:55:48;;;;;;;2.78;2.33;;;26.50;53.00;;;;;;5054939;28;20178;-83
2022/07/13 00:58:14;;;;;;;3.13;2.30;;;26.40;53.10;;;;;;5071664;28;20123;-82
2022/07/13 01:00:40;;;;;;;2.90;2.20;;;26.40;53.10;;;;;;5050421;28;20047;-87
2022/07/13 01:03:06;;;;;;;3.10;2.38;;;26.40;53.20;;;;;;5069981;28;20396;-83
2022/07/13 01:05:32;;;;;;;2.80;2.30;;;26.40;53.20;;;;;;5072793;28;20043;-83
2022/07/13 01:07:58;;;;;;;3.47;2.50;;;26.40;53.30;;;;;;5057384;28;20707;-82
2022/07/13 01:10:25;;;;;;;2.72;2.13;;;26.30;53.30;;;;;;5057340;28;20056;-82
2022/07/13 01:12:51;;;;;;;3.88;2.67;;;26.30;53.40;;;;;;5066759;28;20029;-82
2022/07/13 01:15:17;;;;;;;3.25;2.47;;;26.30;53.40;;;;;;5072656;28;20038;-83
2022/07/13 01:17:43;;;;;;;2.70;2.22;;;26.30;53.40;;;;;;5071023;28;20075;-86
2022/07/13 01:20:18;;;;;;;3.13;2.25;;;26.30;53.50;;;;;;5055219;28;20036;-82
2022/07/13 01:22:45;;;;;;;3.33;2.55;;;26.30;53.50;;;;;;5072742;28;20465;-81
2022/07/13 01:25:14;;;;;;;4.78;2.50;;;26.20;53.50;;;;;;5072955;28;20062;-82
2022/07/13 01:27:42;;;;;;;2.92;2.28;;;26.20;53.60;;;;;;5069250;28;20465;-82
2022/07/13 01:30:08;;;;;;;2.47;2.20;;;26.20;53.60;;;;;;5082177;28;20028;-82
2022/07/13 01:32:46;;;;;;;4.03;2.47;;;26.20;53.60;;;;;;5066876;28;20025;-82
2022/07/13 01:35:13;;;;;;;3.47;2.55;;;26.10;53.70;;;;;;5067327;28;20596;-81
2022/07/13 01:37:39;;;;;;;3.35;2.47;;;26.10;53.70;;;;;;5061789;28;20132;-83
2022/07/13 01:40:06;;;;;;;2.78;2.25;;;26.10;53.70;;;;;;5039486;28;20028;-82
2022/07/13 01:42:38;;;;;;;2.45;2.25;;;26.00;53.70;;;;;;5070264;28;20020;-81
2022/07/13 01:45:07;;;;;;;2.50;2.25;;;26.00;53.80;;;;;;5061152;28;20548;-82
2022/07/13 01:47:40;;;;;;;3.10;2.15;;;26.00;53.90;;;;;;5051314;28;20056;-82
2022/07/13 01:50:08;;;;;;;3.05;2.45;;;26.00;53.90;;;;;;5055118;28;20491;-85
2022/07/13 01:52:35;;;;;;;2.67;2.33;;;26.00;53.90;;;;;;5055663;28;20028;-86
2022/07/13 01:55:05;;;;;;;2.83;2.38;;;26.00;53.90;;;;;;5069366;28;20033;-82
2022/07/13 01:57:32;;;;;;;2.50;1.98;;;26.00;54.00;;;;;;5067224;28;20025;-88
2022/07/13 02:00:13;;;;;;;2.70;2.15;;;25.90;54.00;;;;;;5055436;28;20036;-82
2022/07/13 02:02:40;;;;;;;2.97;2.38;;;25.90;54.10;;;;;;5066108;28;20031;-83
2022/07/13 02:05:09;;;;;;;2.22;1.90;;;25.80;54.00;;;;;;5035747;28;20809;-83
2022/07/13 02:07:36;;;;;;;2.35;2.05;;;25.80;54.10;;;;;;5072042;28;20092;-82
2022/07/13 02:10:04;;;;;;;2.80;2.38;;;25.80;54.20;;;;;;5054433;28;20480;-82
2022/07/13 02:12:29;;;;;;;2.83;2.30;;;25.80;54.20;;;;;;5068348;28;20032;-81
2022/07/13 02:14:55;;;;;;;2.38;2.13;;;25.80;54.20;;;;;;5051075;28;20036;-85
2022/07/13 02:17:21;;;;;;;2.92;2.30;;;25.70;54.20;;;;;;5067948;28;20047;-81
2022/07/13 02:19:47;;;;;;;2.60;2.28;;;25.70;54.20;;;;;;5067400;28;20078;-86
2022/07/13 02:22:14;;;;;;;2.50;2.15;;;25.70;54.30;;;;;;5053490;28;20032;-82
2022/07/13 02:24:40;;;;;;;2.72;2.15;;;25.70;54.30;;;;;;5072070;28;20055;-81
2022/07/13 02:27:05;;;;;;;2.42;2.10;;;25.60;54.30;;;;;;5068746;28;20024;-81
2022/07/13 02:29:31;;;;;;;2.28;2.03;;;25.70;54.40;;;;;;5054543;28;20560;-81
2022/07/13 02:31:57;;;;;;;2.67;2.10;;;25.70;54.50;;;;;;5048977;28;20033;-81
2022/07/13 02:34:27;;;;;;;2.40;2.10;;;25.60;54.40;;;;;;5054464;28;20033;-81
2022/07/13 02:36:54;;;;;;;2.38;2.10;;;25.60;54.50;;;;;;5052919;28;20029;-81
2022/07/13 02:39:20;;;;;;;2.40;2.10;;;25.60;54.50;;;;;;5064140;28;20036;-81
2022/07/13 02:41:46;;;;;;;2.45;2.15;;;25.60;54.60;;;;;;5064738;28;20111;-81
2022/07/13 02:44:12;;;;;;;2.72;2.20;;;25.50;54.60;;;;;;5073324;28;20028;-83
2022/07/13 02:46:39;;;;;;;2.35;2.08;;;25.60;54.60;;;;;;5069993;28;20051;-81
2022/07/13 02:49:05;;;;;;;2.67;2.10;;;25.50;54.60;;;;;;5046143;28;20087;-81
2022/07/13 02:51:31;;;;;;;2.30;2.00;;;25.50;54.70;;;;;;5053428;28;20051;-82
2022/07/13 02:53:56;;;;;;;2.85;2.20;;;25.50;54.70;;;;;;5068554;28;20048;-82
2022/07/13 02:56:23;;;;;;;2.80;2.17;;;25.40;54.60;;;;;;5073521;28;20491;-81
2022/07/13 02:58:49;;;;;;;2.22;2.00;;;25.50;54.80;;;;;;5055582;28;20024;-82
2022/07/13 03:01:15;;;;;;;2.60;1.80;;;25.40;54.70;;;;;;5036808;28;20029;-81
2022/07/13 03:03:41;;;;;;;2.20;2.00;;;25.40;54.80;;;;;;5079747;28;20358;-82
2022/07/13 03:06:07;;;;;;;2.25;2.00;;;25.40;54.80;;;;;;5039191;28;20024;-82
2022/07/13 03:08:33;;;;;;;2.05;1.80;;;25.40;54.90;;;;;;5065959;28;20499;-81
2022/07/13 03:10:58;;;;;;;2.08;1.75;;;25.40;54.90;;;;;;5051410;28;20558;-81
2022/07/13 03:13:24;;;;;;;2.05;1.83;;;25.30;54.90;;;;;;5052661;28;20032;-85
2022/07/13 03:15:52;;;;;;;2.53;1.80;;;25.30;55.00;;;;;;5037023;28;20047;-81
2022/07/13 03:18:17;;;;;;;1.75;1.65;;;25.30;55.00;;;;;;5053203;28;20131;-84
2022/07/13 03:20:43;;;;;;;2.42;2.00;;;25.30;55.00;;;;;;5068512;28;20120;-81
2022/07/13 03:23:09;;;;;;;2.05;1.83;;;25.30;55.10;;;;;;5053277;28;20122;-82
2022/07/13 03:25:35;;;;;;;1.98;1.73;;;25.20;55.00;;;;;;5036475;28;20496;-82
2022/07/13 03:28:01;;;;;;;1.92;1.73;;;25.30;55.10;;;;;;5054005;28;20028;-82
2022/07/13 03:30:28;;;;;;;2.35;1.70;;;25.20;55.00;;;;;;5049407;28;20078;-81
2022/07/13 03:32:54;;;;;;;2.13;1.75;;;25.20;55.00;;;;;;5059497;28;20029;-82
2022/07/13 03:35:20;;;;;;;2.42;1.75;;;25.20;55.00;;;;;;5036328;28;20032;-84
2022/07/13 03:37:48;;;;;;;2.30;2.00;;;25.20;55.10;;;;;;5048702;28;20040;-82
2022/07/13 03:40:14;;;;;;;1.95;1.75;;;25.20;55.20;;;;;;5051746;28;20063;-81
2022/07/13 03:42:40;;;;;;;1.77;1.55;;;25.10;55.20;;;;;;5054513;28;20043;-85
2022/07/13 03:45:07;;;;;;;2.20;1.92;;;25.10;55.20;;;;;;5051022;28;20037;-81
2022/07/13 03:47:33;;;;;;;2.35;1.90;;;25.10;55.30;;;;;;5047319;28;20127;-82
2022/07/13 03:49:59;;;;;;;2.08;1.77;;;25.10;55.30;;;;;;5052376;28;20043;-82
2022/07/13 03:52:25;;;;;;;1.90;1.70;;;25.10;55.30;;;;;;5070842;28;20020;-81
2022/07/13 03:54:51;;;;;;;2.05;1.70;;;25.10;55.30;;;;;;5033228;28;20063;-83
2022/07/13 03:57:18;;;;;;;1.83;1.60;;;25.00;55.30;;;;;;5043263;28;20037;-81
2022/07/13 03:59:44;;;;;;;2.25;1.85;;;25.00;55.20;;;;;;5048236;28;20124;-87
2022/07/13 04:02:10;;;;;;;1.75;1.60;;;25.00;55.20;;;;;;5052359;28;20068;-83
2022/07/13 04:04:35;;;;;;;1.70;1.60;;;25.00;55.30;;;;;;5037693;28;20469;-84
2022/07/13 04:07:01;;;;;;;1.70;1.55;;;25.00;55.30;;;;;;5060677;28;20063;-82
2022/07/13 04:09:29;;;;;;;1.70;1.60;;;24.90;55.20;;;;;;5056393;28;20115;-84
2022/07/13 04:11:54;;;;;;;1.70;1.60;;;25.00;55.30;;;;;;5049727;28;20116;-82
2022/07/13 04:14:21;;;;;;;2.08;1.75;;;24.90;55.30;;;;;;5052741;28;20544;-81
2022/07/13 04:16:47;;;;;;;1.98;1.80;;;24.90;55.30;;;;;;5051033;28;20443;-86
2022/07/13 04:19:14;;;;;;;2.72;1.70;;;24.90;55.30;;;;;;5061910;28;20473;-81
2022/07/13 04:21:40;;;;;;;1.70;1.60;;;24.90;55.30;;;;;;5048702;28;20082;-83
2022/07/13 04:24:06;;;;;;;2.20;1.45;;;24.80;55.30;;;;;;5051461;28;20032;-81
2022/07/13 04:26:33;;;;;;;1.92;1.70;;;24.90;55.30;;;;;;5080497;28;20159;-81
2022/07/13 04:28:59;;;;;;;2.58;1.52;;;24.80;55.30;;;;;;5056855;28;20445;-81
2022/07/13 04:31:26;;;;;;;1.70;1.60;;;24.90;55.40;;;;;;5062568;28;20036;-81
2022/07/13 04:33:52;;;;;;;1.65;1.52;;;24.80;55.30;;;;;;5048268;28;20115;-81
2022/07/13 04:36:20;;;;;;;2.40;1.83;;;24.80;55.30;;;;;;5049269;28;20098;-82
2022/07/13 04:38:45;;;;;;;1.80;1.52;;;24.80;55.30;;;;;;5067526;28;20033;-81
2022/07/13 04:41:11;;;;;;;1.85;1.45;;;24.80;55.30;;;;;;5063925;28;20071;-80
2022/07/13 04:43:38;;;;;;;1.63;1.52;;;24.80;55.40;;;;;;5049334;28;20118;-80
2022/07/13 04:46:09;;;;;;;1.88;1.52;;;24.70;55.30;;;;;;5056042;28;20052;-79
2022/07/13 04:48:35;;;;;;;1.58;1.48;;;24.70;55.30;;;;;;5062437;28;20037;-80
2022/07/13 04:51:01;;;;;;;1.90;1.55;;;24.80;55.40;;;;;;5068927;28;20448;-79
2022/07/13 04:53:27;;;;;;;1.45;1.35;;;24.80;55.40;;;;;;5029198;28;20032;-83
2022/07/13 04:55:55;;;;;;;1.73;1.55;;;24.70;55.40;;;;;;5038491;28;20105;-79
2022/07/13 04:58:20;;;;;;;2.00;1.50;;;24.70;55.30;;;;;;5027058;28;20080;-79
2022/07/13 05:00:46;;;;;;;2.60;1.73;;;24.70;55.40;;;;;;5073139;28;20081;-79
2022/07/13 05:03:12;;;;;;;2.63;1.70;;;24.70;55.40;;;;;;5055805;28;20028;-84
2022/07/13 05:05:38;;;;;;;2.10;1.70;;;24.70;55.40;;;;;;5067901;28;20040;-79
2022/07/13 05:08:05;;;;;;;1.63;1.40;;;24.70;55.40;;;;;;5072816;28;20042;-84
2022/07/13 05:10:31;;;;;;;1.52;1.42;;;24.60;55.40;;;;;;5066029;28;20025;-77
2022/07/13 05:12:57;;;;;;;1.80;1.70;;;24.60;55.50;;;;;;5056382;28;20052;-89
2022/07/13 05:15:24;;;;;;;1.50;1.40;;;24.60;55.50;;;;;;5072783;28;20119;-87
2022/07/13 05:17:51;;;;;;;2.10;1.63;;;24.60;55.50;;;;;;5037628;28;20032;-88
2022/07/13 05:20:17;;;;;;;2.22;1.35;;;24.60;55.50;;;;;;5062532;28;20053;-85
2022/07/13 05:22:50;;;;;;;1.50;1.40;;;24.60;55.60;;;;;;5063941;28;20036;-85
2022/07/13 05:25:20;;;;;;;1.70;1.60;;;24.60;55.60;;;;;;5055835;28;20063;-85
2022/07/13 05:27:46;;;;;;;1.67;1.58;;;24.60;55.60;;;;;;5057263;28;20027;-85
2022/07/13 05:30:12;;;;;;;1.98;1.58;;;24.60;55.60;;;;;;5055891;28;20024;-85
2022/07/13 05:32:38;;;;;;;1.80;1.52;;;24.60;55.70;;;;;;5073040;28;20456;-81
2022/07/13 05:35:04;;;;;;;1.60;1.50;;;24.60;55.70;;;;;;5055682;28;20116;-85
2022/07/13 05:37:31;;;;;;;2.08;1.58;;;24.60;55.70;;;;;;5055959;28;20141;-85
2022/07/13 05:39:56;;;;;;;1.80;1.60;;;24.60;55.70;;;;;;5056602;28;20025;-87
2022/07/13 05:42:22;;;;;;;1.85;1.45;;;24.60;55.70;;;;;;5055813;28;20105;-86
2022/07/13 05:44:48;;;;;;;1.65;1.55;;;24.60;55.70;;;;;;5056535;28;20480;-86
2022/07/13 05:47:14;;;;;;;1.70;1.52;;;24.60;55.70;;;;;;5057146;28;20052;-87
2022/07/13 05:49:41;;;;;;;2.20;1.60;;;24.60;55.70;;;;;;5031498;28;20074;-88
2022/07/13 05:52:09;;;;;;;1.92;1.65;;;24.60;55.70;;;;;;5055681;28;20040;-86
2022/07/13 05:54:35;;;;;;;1.88;1.67;;;24.60;55.70;;;;;;5055182;28;20061;-86
2022/07/13 05:57:02;;;;;;;1.73;1.63;;;24.60;55.70;;;;;;5056044;28;20017;-86
2022/07/13 05:59:27;;;;;;;1.50;1.40;;;24.60;55.70;;;;;;5062427;28;20159;-86
2022/07/13 06:01:53;;;;;;;2.05;1.77;;;24.60;55.70;;;;;;5073857;28;20067;-86
2022/07/13 06:04:19;;;;;;;1.60;1.50;;;24.60;55.70;;;;;;5072763;28;20039;-86
2022/07/13 06:06:46;;;;;;;2.00;1.80;;;24.60;55.70;;;;;;5072861;28;20032;-86
2022/07/13 06:09:11;;;;;;;1.90;1.58;;;24.60;55.70;;;;;;5075848;28;20055;-85
2022/07/13 06:11:38;;;;;;;1.50;1.40;;;24.60;55.70;;;;;;5044645;28;20068;-85
2022/07/13 06:14:04;;;;;;;1.70;1.50;;;24.60;55.70;;;;;;5086138;28;20039;-87
2022/07/13 06:16:29;;;;;;;2.17;1.58;;;24.60;55.70;;;;;;5055933;28;20024;-87
2022/07/13 06:18:55;;;;;;;2.38;1.63;;;24.60;56.30;;;;;;5039128;28;20024;-85
2022/07/13 06:21:21;;;;;;;1.73;1.63;;;24.60;55.60;;;;;;5068412;28;20079;-86
2022/07/13 06:23:46;;;;;;;1.88;1.67;;;24.60;55.60;;;;;;5070522;28;20028;-83
2022/07/13 06:26:12;;;;;;;1.98;1.67;;;24.60;55.60;;;;;;5053046;28;20029;-83
2022/07/13 06:28:38;;;;;;;1.80;1.67;;;24.60;55.60;;;;;;5060339;28;20033;-86
2022/07/13 06:31:03;;;;;;;2.20;1.98;;;24.70;55.70;;;;;;5073232;28;20032;-85
2022/07/13 06:33:29;;;;;;;1.67;1.50;;;24.70;55.70;;;;;;5071702;28;20036;-85
2022/07/13 06:35:55;;;;;;;2.00;1.80;;;24.70;55.60;;;;;;5057578;28;20078;-86
2022/07/13 06:38:20;;;;;;;2.20;1.60;;;24.70;55.60;;;;;;5072360;28;20024;-85
2022/07/13 06:40:47;;;;;;;1.80;1.50;;;24.70;55.60;;;;;;5072828;28;20032;-85
2022/07/13 06:43:13;;;;;;;2.38;1.80;;;24.70;55.60;;;;;;5072812;28;20154;-86
2022/07/13 06:45:39;;;;;;;2.25;1.42;;;24.70;55.60;;;;;;5061478;28;20060;-85
2022/07/13 06:48:05;;;;;;;2.35;1.88;;;24.70;55.60;;;;;;5055137;28;20388;-85
2022/07/13 06:50:31;;;;;;;2.08;1.70;;;24.80;55.60;;;;;;5085124;28;20032;-85
2022/07/13 06:52:57;;;;;;;1.70;1.60;;;24.70;55.60;;;;;;5059869;28;20029;-85
2022/07/13 06:55:23;;;;;;;1.98;1.67;;;24.80;55.70;;;;;;5069173;28;20068;-86
2022/07/13 06:57:49;;;;;;;2.45;1.70;;;24.80;55.70;;;;;;5071761;28;20098;-85
2022/07/13 07:00:14;;;;;;;2.20;1.95;;;24.80;55.70;;;;;;5071473;28;20456;-84
2022/07/13 07:02:40;;;;;;;2.05;1.85;;;24.80;55.70;;;;;;5075443;28;20032;-85
2022/07/13 07:05:09;;;;;;;1.88;1.67;;;24.90;55.70;;;;;;5038094;28;20059;-85
2022/07/13 07:07:36;;;;;;;2.17;1.80;;;24.90;55.70;;;;;;5079027;28;20021;-84
2022/07/13 07:10:03;;;;;;;1.92;1.73;;;24.90;55.70;;;;;;5052972;28;20063;-84
2022/07/13 07:12:28;;;;;;;2.20;1.77;;;24.90;55.70;;;;;;5063479;28;20102;-85
2022/07/13 07:14:54;;;;;;;1.88;1.60;;;25.00;55.70;;;;;;5054775;28;20191;-85
2022/07/13 07:17:20;;;;;;;2.28;1.70;;;25.00;55.70;;;;;;5053111;28;20530;-84
2022/07/13 07:19:45;;;;;;;2.40;1.58;;;25.00;55.70;;;;;;5069871;28;20020;-85
2022/07/13 07:22:12;;;;;;;1.92;1.65;;;25.00;55.70;;;;;;5046901;28;20043;-84
2022/07/13 07:24:41;;;;;;;2.10;1.80;;;25.10;55.80;;;;;;5071948;28;20495;-85
2022/07/13 07:27:09;;;;;;;2.85;1.77;;;25.10;55.70;;;;;;5055264;28;20032;-85
2022/07/13 07:29:35;;;;;;;1.75;1.63;;;25.10;55.70;;;;;;5064780;28;20028;-85
2022/07/13 07:32:03;;;;;;;2.25;1.83;;;25.10;55.70;;;;;;5074695;28;20029;-85
2022/07/13 07:34:29;;;;;;;1.42;1.33;;;25.20;55.70;;;;;;5054918;28;20043;-86
2022/07/13 07:36:55;;;;;;;2.65;2.03;;;25.20;55.70;;;;;;5057095;28;20392;-86
2022/07/13 07:39:24;;;;;;;3.20;1.80;;;25.20;55.70;;;;;;5069486;28;20029;-86
2022/07/13 07:41:50;;;;;;;2.47;1.63;;;25.30;55.80;;;;;;5063602;28;20032;-83
2022/07/13 07:44:16;;;;;;;2.25;1.83;;;25.30;55.70;;;;;;5050939;28;20057;-86
2022/07/13 07:46:42;;;;;;;2.45;1.60;;;25.40;55.80;;;;;;5070568;28;20398;-82
2022/07/13 07:49:07;;;;;;;2.30;1.95;;;25.40;55.80;;;;;;5064528;28;20327;-82
2022/07/13 07:51:33;;;;;;;2.22;1.77;;;25.40;55.70;;;;;;5066250;28;20040;-82
2022/07/13 07:53:59;;;;;;;1.75;1.50;;;25.50;55.70;;;;;;5051207;28;20024;-82
2022/07/13 07:56:25;;;;;;;2.00;1.80;;;25.60;55.70;;;;;;5053048;28;20045;-82
2022/07/13 07:58:51;;;;;;;2.22;1.88;;;25.60;55.60;;;;;;5061170;28;20458;-83
2022/07/13 08:01:17;;;;;;;3.95;2.40;;;25.60;55.60;;;;;;5053127;28;20078;-84
2022/07/13 08:03:43;;;;;;;2.20;2.00;;;25.70;55.60;;;;;;5073513;28;20032;-82
2022/07/13 08:06:08;;;;;;;2.67;1.92;;;25.70;55.60;;;;;;5069968;28;20041;-82
2022/07/13 08:08:36;;;;;;;2.55;1.77;;;25.80;55.60;;;;;;5063086;28;20086;-82
2022/07/13 08:11:03;;;;;;;2.25;1.63;;;25.80;55.50;;;;;;5059862;28;20488;-84
2022/07/13 08:13:30;;;;;;;2.17;1.77;;;25.90;55.50;;;;;;5061734;28;20127;-85
2022/07/13 08:15:56;;;;;;;2.28;1.80;;;25.90;55.50;;;;;;5053267;28;20036;-83
2022/07/13 08:18:22;;;;;;;2.28;1.70;;;26.00;55.50;;;;;;5069000;28;20081;-84
2022/07/13 08:20:47;;;;;;;1.88;1.60;;;26.00;55.40;;;;;;5084270;28;20184;-84
2022/07/13 08:25:57;;;;;;;2.55;1.77;;;26.10;55.30;;;;;;5067419;28;20048;-88
2022/07/13 08:28:23;;;;;;;1.92;1.58;;;26.20;55.30;;;;;;5055317;28;20111;-82
2022/07/13 08:30:49;;;;;;;2.25;1.85;;;26.20;55.20;;;;;;5064509;28;20031;-81
2022/07/13 08:33:15;;;;;;;2.13;1.70;;;26.30;55.30;;;;;;5076671;28;20036;-85
2022/07/13 08:38:40;;;;;;;1.95;1.55;;;26.40;55.20;;;;;;5067643;28;20427;-78
2022/07/13 08:41:06;;;;;;;1.83;1.60;;;26.40;55.10;;;;;;5073315;28;20029;-86
2022/07/13 08:43:35;;;;;;;1.92;1.55;;;26.50;55.10;;;;;;5039180;28;20032;-85
2022/07/13 08:46:07;;;;;;;1.90;1.70;;;26.50;55.10;;;;;;5066649;28;20056;-84
2022/07/13 08:48:37;;;;;;;2.45;1.70;;;26.60;55.10;;;;;;5074299;28;20077;-84
2022/07/13 08:51:07;;;;;;;2.15;1.60;;;26.60;55.00;;;;;;5073392;28;20024;-85
2022/07/13 08:53:34;;;;;;;1.95;1.67;;;26.70;55.00;;;;;;5054028;28;20032;-85
2022/07/13 08:56:00;;;;;;;2.00;1.80;;;26.80;54.90;;;;;;5038224;28;20037;-85
2022/07/13 08:58:26;;;;;;;2.10;1.70;;;26.90;55.10;;;;;;5067356;28;20036;-85
2022/07/13 09:00:52;;;;;;;1.77;1.50;;;26.90;54.90;;;;;;5074013;28;20032;-87
2022/07/13 09:03:18;;;;;;;2.10;1.70;;;26.90;54.80;;;;;;5070557;28;20037;-83
2022/07/13 09:05:44;;;;;;;2.65;1.80;;;27.00;54.70;;;;;;5073276;28;20040;-84
2022/07/13 09:08:12;;;;;;;2.08;1.60;;;27.10;54.70;;;;;;5036962;28;20032;-84
2022/07/13 09:11:00;;;;;;;1.98;1.73;;;27.10;54.70;;;;;;5069702;28;20020;-88
2022/07/13 09:13:42;;;;;;;1.67;1.30;;;27.20;54.80;;;;;;5071438;28;20495;-85
2022/07/13 09:16:17;;;;;;;1.83;1.50;;;27.30;54.70;;;;;;5073478;28;20044;-83
2022/07/13 09:18:45;;;;;;;2.53;1.60;;;27.30;54.60;;;;;;5065878;28;20036;-80
2022/07/13 09:21:10;;;;;;;1.83;1.55;;;27.40;54.60;;;;;;5071593;28;20050;-84
2022/07/13 09:23:36;;;;;;;2.00;1.80;;;27.40;54.50;;;;;;5072776;28;20036;-80
2022/07/13 09:26:02;;;;;;;2.17;1.70;;;27.50;54.60;;;;;;5038903;28;20176;-88
2022/07/13 09:28:28;;;;;;;1.90;1.65;;;27.50;54.50;;;;;;5055139;28;20040;-81
2022/07/13 09:31:03;;;;;;;2.45;1.85;;;27.50;55.10;;;;;;5056412;28;20032;-80
2022/07/13 09:33:34;;;;;;;1.75;1.50;;;27.60;54.50;;;;;;5067677;28;20060;-80
2022/07/13 09:36:09;;;;;;;1.48;1.38;;;27.70;54.50;;;;;;5057246;28;20393;-80
2022/07/13 09:38:41;;;;;;;1.80;1.60;;;27.70;54.40;;;;;;5066017;28;20025;-80
2022/07/13 09:41:26;;;;;;;2.65;1.75;;;27.80;54.40;;;;;;5074567;28;20029;-80
2022/07/13 09:47:03;;;;;;;1.60;1.50;;;27.90;54.30;;;;;;5078875;28;20007;-80
2022/07/13 09:49:40;;;;;;;1.75;1.40;;;27.90;54.30;;;;;;5072876;28;20024;-80
2022/07/13 09:52:08;;;;;;;2.45;1.60;;;28.00;54.30;;;;;;5072037;28;20043;-80
2022/07/13 09:54:36;;;;;;;3.20;1.77;;;28.00;54.30;;;;;;5073697;28;20071;-81
2022/07/13 09:57:08;;;;;;;2.30;1.75;;;28.10;54.40;;;;;;5055862;28;20040;-80
2022/07/13 09:59:35;;;;;;;2.53;1.67;;;28.20;54.40;;;;;;5065935;28;20082;-80
2022/07/13 10:02:03;;;;;;;1.70;1.60;;;28.30;54.30;;;;;;5071597;28;20115;-81
2022/07/13 10:04:32;;;;;;;1.77;1.48;;;28.40;54.30;;;;;;5058358;28;20119;-82
2022/07/13 10:06:59;;;;;;;1.52;1.42;;;28.40;54.20;;;;;;5074047;28;20162;-82
2022/07/13 10:09:26;;;;;;;2.08;1.60;;;28.50;54.20;;;;;;5070605;28;20127;-81
2022/07/13 10:11:52;;;;;;;2.45;1.80;;;28.60;54.20;;;;;;5071529;28;20016;-82
2022/07/13 10:14:18;;;;;;;2.28;1.77;;;28.70;54.20;;;;;;5071285;28;20040;-83
2022/07/13 10:16:45;;;;;;;2.20;1.70;;;28.80;54.10;;;;;;5061022;28;20029;-84
2022/07/13 10:19:12;;;;;;;1.65;1.55;;;28.80;54.00;;;;;;5067285;28;20039;-83
2022/07/13 10:22:10;;;;;;;1.70;1.50;;;28.90;54.00;;;;;;5067493;28;20024;-83
2022/07/13 10:24:36;;;;;;;2.00;1.52;;;29.00;54.00;;;;;;5066256;28;20038;-82
2022/07/13 10:27:31;;;;;;;1.42;1.33;;;29.10;53.80;;;;;;5071129;28;20028;-84
2022/07/13 10:29:59;;;;;;;2.00;1.42;;;29.20;54.00;;;;;;5060157;28;20040;-81
2022/07/13 10:32:31;;;;;;;2.05;1.40;;;29.30;53.80;;;;;;5064228;28;20032;-83
2022/07/13 10:35:11;;;;;;;2.03;1.58;;;29.30;53.70;;;;;;5063733;28;20427;-81
2022/07/13 10:37:55;;;;;;;1.60;1.50;;;29.40;53.70;;;;;;5055073;28;20060;-87
2022/07/13 10:40:28;;;;;;;1.95;1.52;;;29.50;53.70;;;;;;5064909;28;20024;-85
2022/07/13 10:42:53;;;;;;;2.50;1.52;;;29.60;53.50;;;;;;5069185;28;20051;-78
2022/07/13 10:45:34;;;;;;;1.98;1.60;;;29.70;53.50;;;;;;5073552;28;20037;-80
2022/07/13 10:48:10;;;;;;;2.45;1.60;;;29.80;53.50;;;;;;5070762;28;20044;-81
2022/07/13 10:50:46;;;;;;;2.65;1.63;;;29.90;53.40;;;;;;5074111;28;20048;-84
2022/07/13 10:53:13;;;;;;;1.60;1.50;;;30.00;53.40;;;;;;5055314;28;20043;-85
2022/07/13 10:55:49;;;;;;;2.20;1.60;;;30.10;53.30;;;;;;5054324;28;20048;-84
2022/07/13 10:58:52;;;;;;;1.95;1.58;;;30.20;53.30;;;;;;5070161;28;20032;-83
2022/07/13 11:01:48;;;;;;;1.27;1.17;;;30.20;53.30;;;;;;5067049;28;20028;-83
2022/07/13 11:04:17;;;;;;;2.03;1.60;;;30.40;53.50;;;;;;5070384;28;20032;-82
2022/07/13 11:07:09;;;;;;;2.08;1.40;;;30.50;53.30;;;;;;5066456;28;21856;-83
2022/07/13 11:09:35;;;;;;;1.95;1.40;;;30.50;53.40;;;;;;5030044;28;20025;-82
2022/07/13 11:12:01;;;;;;;1.60;1.50;;;30.60;53.30;;;;;;5077726;28;20530;-81
2022/07/13 11:14:36;;;;;;;1.83;1.50;;;30.70;53.30;;;;;;5068112;28;20028;-81
2022/07/13 11:17:12;;;;;;;1.75;1.45;;;30.70;53.30;;;;;;5069872;28;20032;-82
2022/07/13 11:19:59;;;;;;;1.85;1.35;;;30.90;53.40;;;;;;5070877;28;20043;-83
2022/07/13 11:22:27;;;;;;;1.85;1.58;;;30.90;53.30;;;;;;5073413;28;20472;-82
2022/07/13 11:25:16;;;;;;;2.85;1.40;;;31.00;53.30;;;;;;5074371;28;20020;-82
2022/07/13 11:28:01;;;;;;;1.35;1.25;;;31.00;53.30;;;;;;5063806;28;20050;-82
2022/07/13 11:30:29;;;;;;;1.58;1.40;;;31.10;53.40;;;;;;5076487;28;20031;-83
2022/07/13 11:32:55;;;;;;;1.92;1.25;;;31.10;53.30;;;;;;5070515;28;20031;-83
2022/07/13 11:35:21;;;;;;;1.40;1.30;;;31.20;53.40;;;;;;5052860;28;20040;-85
2022/07/13 11:37:48;;;;;;;2.15;1.40;;;31.20;53.40;;;;;;5039380;28;20465;-82
2022/07/13 11:40:46;;;;;;;2.85;1.35;;;31.20;53.40;;;;;;5069869;28;20408;-83
2022/07/13 11:43:12;;;;;;;1.70;1.30;;;31.30;53.70;;;;;;5016140;28;20426;-81
2022/07/13 11:45:40;;;;;;;1.65;1.40;;;31.40;53.60;;;;;;5070513;28;20120;-82
2022/07/13 11:48:11;;;;;;;1.65;1.42;;;31.40;53.60;;;;;;5069705;28;20503;-81
2022/07/13 11:50:52;;;;;;;1.75;1.40;;;31.40;53.60;;;;;;5069536;28;20060;-83
2022/07/13 11:53:28;;;;;;;2.22;1.45;;;31.40;53.60;;;;;;5074844;28;20464;-83
2022/07/13 11:55:56;;;;;;;1.60;1.40;;;31.50;53.60;;;;;;5076234;28;20063;-83
2022/07/13 11:58:28;;;;;;;1.48;1.33;;;31.50;53.60;;;;;;5057695;28;20115;-82
2022/07/13 12:00:56;;;;;;;1.60;1.50;;;31.50;53.60;;;;;;5067697;28;20047;-83
2022/07/13 12:03:32;;;;;;;1.83;1.40;;;31.60;53.70;;;;;;5057918;28;20094;-82
2022/07/13 12:06:07;;;;;;;1.45;1.30;;;31.60;53.70;;;;;;5057546;28;20039;-82
2022/07/13 12:08:36;;;;;;;1.77;1.40;;;31.60;53.80;;;;;;5073943;28;20524;-81
2022/07/13 12:11:05;;;;;;;1.33;1.23;;;31.60;53.90;;;;;;5077021;28;20024;-81
2022/07/13 12:13:36;;;;;;;1.80;1.30;;;31.70;53.90;;;;;;5087926;28;20120;-85
2022/07/13 12:16:03;;;;;;;1.20;1.10;;;31.70;53.90;;;;;;5074089;28;20040;-83
2022/07/13 12:18:29;;;;;;;1.95;1.45;;;31.70;53.90;;;;;;5060298;28;20028;-84
2022/07/13 12:20:57;;;;;;;2.05;1.40;;;31.80;53.90;;;;;;5075174;28;20050;-82
2022/07/13 12:23:23;;;;;;;1.92;1.30;;;31.80;53.90;;;;;;5075408;28;20473;-81
2022/07/13 12:26:04;;;;;;;1.30;1.20;;;31.80;53.80;;;;;;5054478;28;20052;-82
2022/07/13 12:28:31;;;;;;;1.70;1.40;;;31.80;53.80;;;;;;5086154;28;20035;-82
2022/07/13 12:30:59;;;;;;;1.50;1.38;;;31.90;53.80;;;;;;5057404;28;20120;-81
2022/07/13 12:33:25;;;;;;;1.52;1.20;;;31.90;53.70;;;;;;5057532;28;20418;-81
2022/07/13 12:36:04;;;;;;;2.47;1.50;;;31.80;53.60;;;;;;5069753;28;20123;-81
2022/07/13 12:38:31;;;;;;;1.20;1.10;;;31.90;53.60;;;;;;5073943;28;20380;-81
2022/07/13 12:41:00;;;;;;;1.63;1.30;;;31.90;53.50;;;;;;5074820;28;20013;-81
2022/07/13 12:43:31;;;;;;;1.58;1.10;;;31.90;53.40;;;;;;5056793;28;20482;-81
2022/07/13 12:45:58;;;;;;;1.17;1.08;;;31.90;53.40;;;;;;5052918;28;20039;-80
2022/07/13 12:48:25;;;;;;;2.22;1.08;;;31.90;53.30;;;;;;5076851;28;20075;-82
2022/07/13 12:51:08;;;;;;;1.60;1.20;;;31.90;53.20;;;;;;5076512;28;20028;-83
2022/07/13 12:53:53;;;;;;;1.42;1.33;;;31.90;53.10;;;;;;5063420;28;20052;-82
2022/07/13 12:56:44;;;;;;;1.50;1.30;;;31.90;53.10;;;;;;5054505;28;20485;-87
2022/07/13 12:59:11;;;;;;;1.40;1.30;;;31.90;53.00;;;;;;5065473;28;20040;-83
2022/07/13 13:01:37;;;;;;;1.30;1.20;;;31.90;52.80;;;;;;5056496;28;20051;-83
2022/07/13 13:04:05;;;;;;;1.20;1.10;;;31.90;52.80;;;;;;5056943;28;20032;-82